Terminal Aerodrome Forecast
Issued by NWS

Home | Current Version | Previous Version | Text Only | Print | Product List | Glossary On
Versions: 1 2 3 4 5 6 7 8 9 10 11 12 13 14 15 16 17 18
393
FTAK31 PAJN 261129
TAFAYA
TAF
PAYA 261129Z 2612/2712 07006KT P6SM -SHSN SCT020 OVC035
      TEMPO 2612/2616 1 1/2SM -SHSN BR BKN015
     FM261800 06006KT P6SM BKN060
     FM271000 08004KT 6SM -SNRA BR SCT020 OVC035
      AMD LTD TO CLD VIS AND WIND 2701/2709=

USA.gov is the U.S. government's official web portal to all federal, state and local government web resources and services.